sensor_id;sensor_type;location;lat;lon;timestamp;P1;durP1;ratioP1;P2;durP2;ratioP2
21899;SDS011;11114;50.658;12.704;2023-06-14T00:01:52;12.15;;;9.50;;
21899;SDS011;11114;50.658;12.704;2023-06-14T00:04:39;10.00;;;9.05;;
21899;SDS011;11114;50.658;12.704;2023-06-14T00:07:34;10.23;;;9.38;;
21899;SDS011;11114;50.658;12.704;2023-06-14T00:10:22;9.40;;;8.68;;
21899;SDS011;11114;50.658;12.704;2023-06-14T00:13:09;10.05;;;9.27;;
21899;SDS011;11114;50.658;12.704;2023-06-14T00:15:55;10.50;;;9.60;;
21899;SDS011;11114;50.658;12.704;2023-06-14T00:18:42;10.65;;;9.75;;
21899;SDS011;11114;50.658;12.704;2023-06-14T00:21:29;11.10;;;10.10;;
21899;SDS011;11114;50.658;12.704;2023-06-14T00:24:16;9.77;;;9.00;;
21899;SDS011;11114;50.658;12.704;2023-06-14T00:27:02;10.88;;;9.90;;
21899;SDS011;11114;50.658;12.704;2023-06-14T00:29:49;9.77;;;9.07;;
21899;SDS011;11114;50.658;12.704;2023-06-14T00:32:35;10.05;;;9.20;;
21899;SDS011;11114;50.658;12.704;2023-06-14T00:35:22;9.07;;;8.38;;
21899;SDS011;11114;50.658;12.704;2023-06-14T00:38:08;9.73;;;8.82;;
21899;SDS011;11114;50.658;12.704;2023-06-14T00:40:58;11.00;;;9.10;;
21899;SDS011;11114;50.658;12.704;2023-06-14T00:43:45;9.77;;;8.80;;
21899;SDS011;11114;50.658;12.704;2023-06-14T00:46:33;10.20;;;9.40;;
21899;SDS011;11114;50.658;12.704;2023-06-14T00:49:19;11.13;;;10.20;;
21899;SDS011;11114;50.658;12.704;2023-06-14T00:52:06;11.15;;;10.05;;
21899;SDS011;11114;50.658;12.704;2023-06-14T00:54:53;10.80;;;9.90;;
21899;SDS011;11114;50.658;12.704;2023-06-14T00:57:39;10.80;;;9.80;;
21899;SDS011;11114;50.658;12.704;2023-06-14T01:00:26;10.55;;;9.20;;
21899;SDS011;11114;50.658;12.704;2023-06-14T01:03:14;9.80;;;9.00;;
21899;SDS011;11114;50.658;12.704;2023-06-14T01:06:17;9.93;;;8.98;;
21899;SDS011;11114;50.658;12.704;2023-06-14T01:09:23;9.80;;;8.98;;
21899;SDS011;11114;50.658;12.704;2023-06-14T01:12:27;9.23;;;8.40;;
21899;SDS011;11114;50.658;12.704;2023-06-14T01:15:21;9.45;;;8.70;;
21899;SDS011;11114;50.658;12.704;2023-06-14T01:18:09;9.27;;;8.38;;
21899;SDS011;11114;50.658;12.704;2023-06-14T01:21:04;9.02;;;8.32;;
21899;SDS011;11114;50.658;12.704;2023-06-14T01:23:51;9.65;;;8.75;;
21899;SDS011;11114;50.658;12.704;2023-06-14T01:26:44;8.82;;;8.23;;
21899;SDS011;11114;50.658;12.704;2023-06-14T01:29:32;9.00;;;8.20;;
21899;SDS011;11114;50.658;12.704;2023-06-14T01:32:19;9.48;;;8.77;;
21899;SDS011;11114;50.658;12.704;2023-06-14T01:35:06;9.27;;;8.57;;
21899;SDS011;11114;50.658;12.704;2023-06-14T01:37:52;9.20;;;8.50;;
21899;SDS011;11114;50.658;12.704;2023-06-14T01:40:39;9.52;;;8.77;;
21899;SDS011;11114;50.658;12.704;2023-06-14T01:43:30;10.05;;;9.23;;
21899;SDS011;11114;50.658;12.704;2023-06-14T01:46:17;9.98;;;9.18;;
21899;SDS011;11114;50.658;12.704;2023-06-14T01:49:06;9.25;;;8.55;;
21899;SDS011;11114;50.658;12.704;2023-06-14T01:51:52;9.52;;;8.73;;
21899;SDS011;11114;50.658;12.704;2023-06-14T01:54:39;9.65;;;8.95;;
21899;SDS011;11114;50.658;12.704;2023-06-14T01:57:28;9.98;;;9.18;;
21899;SDS011;11114;50.658;12.704;2023-06-14T02:00:22;9.80;;;9.00;;
21899;SDS011;11114;50.658;12.704;2023-06-14T02:03:11;10.07;;;9.30;;
21899;SDS011;11114;50.658;12.704;2023-06-14T02:06:12;9.33;;;8.63;;
21899;SDS011;11114;50.658;12.704;2023-06-14T02:09:05;9.70;;;8.90;;
21899;SDS011;11114;50.658;12.704;2023-06-14T02:11:58;9.27;;;8.48;;
21899;SDS011;11114;50.658;12.704;2023-06-14T02:14:45;10.45;;;9.48;;
21899;SDS011;11114;50.658;12.704;2023-06-14T02:17:31;10.60;;;9.80;;
21899;SDS011;11114;50.658;12.704;2023-06-14T02:20:17;10.90;;;9.80;;
21899;SDS011;11114;50.658;12.704;2023-06-14T02:23:05;10.20;;;9.40;;
21899;SDS011;11114;50.658;12.704;2023-06-14T02:25:54;10.25;;;9.35;;
21899;SDS011;11114;50.658;12.704;2023-06-14T02:28:41;10.93;;;10.05;;
21899;SDS011;11114;50.658;12.704;2023-06-14T02:31:27;10.50;;;9.70;;
21899;SDS011;11114;50.658;12.704;2023-06-14T02:34:15;9.55;;;8.65;;
21899;SDS011;11114;50.658;12.704;2023-06-14T02:37:06;9.20;;;8.50;;
21899;SDS011;11114;50.658;12.704;2023-06-14T02:39:52;9.60;;;8.80;;
21899;SDS011;11114;50.658;12.704;2023-06-14T02:42:38;10.15;;;9.23;;
21899;SDS011;11114;50.658;12.704;2023-06-14T02:45:25;9.10;;;8.27;;
21899;SDS011;11114;50.658;12.704;2023-06-14T02:48:12;9.25;;;8.55;;
21899;SDS011;11114;50.658;12.704;2023-06-14T02:50:59;9.20;;;8.40;;
21899;SDS011;11114;50.658;12.704;2023-06-14T02:53:45;9.60;;;8.90;;
21899;SDS011;11114;50.658;12.704;2023-06-14T02:56:32;10.23;;;9.35;;
21899;SDS011;11114;50.658;12.704;2023-06-14T02:59:18;10.02;;;9.23;;
21899;SDS011;11114;50.658;12.704;2023-06-14T03:02:07;9.75;;;9.05;;
21899;SDS011;11114;50.658;12.704;2023-06-14T03:04:55;10.90;;;9.90;;
21899;SDS011;11114;50.658;12.704;2023-06-14T03:07:42;10.60;;;9.63;;
21899;SDS011;11114;50.658;12.704;2023-06-14T03:10:31;10.48;;;9.48;;
21899;SDS011;11114;50.658;12.704;2023-06-14T03:13:19;10.05;;;9.15;;
21899;SDS011;11114;50.658;12.704;2023-06-14T03:16:09;10.75;;;9.73;;
21899;SDS011;11114;50.658;12.704;2023-06-14T03:18:59;10.90;;;10.10;;
21899;SDS011;11114;50.658;12.704;2023-06-14T03:21:51;10.63;;;9.85;;
21899;SDS011;11114;50.658;12.704;2023-06-14T03:24:40;10.45;;;9.55;;
21899;SDS011;11114;50.658;12.704;2023-06-14T03:27:32;10.30;;;9.60;;
21899;SDS011;11114;50.658;12.704;2023-06-14T03:30:19;10.13;;;9.32;;
21899;SDS011;11114;50.658;12.704;2023-06-14T03:33:08;11.15;;;9.25;;
21899;SDS011;11114;50.658;12.704;2023-06-14T03:35:57;10.68;;;9.65;;
21899;SDS011;11114;50.658;12.704;2023-06-14T03:38:45;10.80;;;9.77;;
21899;SDS011;11114;50.658;12.704;2023-06-14T03:41:34;10.73;;;9.93;;
21899;SDS011;11114;50.658;12.704;2023-06-14T03:44:21;10.80;;;10.00;;
21899;SDS011;11114;50.658;12.704;2023-06-14T03:47:08;10.93;;;10.07;;
21899;SDS011;11114;50.658;12.704;2023-06-14T03:49:55;10.73;;;9.82;;
21899;SDS011;11114;50.658;12.704;2023-06-14T03:52:41;11.32;;;10.15;;
21899;SDS011;11114;50.658;12.704;2023-06-14T03:55:30;10.88;;;10.00;;
21899;SDS011;11114;50.658;12.704;2023-06-14T03:58:23;11.15;;;10.25;;
21899;SDS011;11114;50.658;12.704;2023-06-14T04:01:09;10.80;;;9.90;;
21899;SDS011;11114;50.658;12.704;2023-06-14T04:03:57;11.10;;;10.20;;
21899;SDS011;11114;50.658;12.704;2023-06-14T04:06:44;11.18;;;10.32;;
21899;SDS011;11114;50.658;12.704;2023-06-14T04:09:34;11.50;;;10.60;;
21899;SDS011;11114;50.658;12.704;2023-06-14T04:12:21;11.90;;;10.90;;
21899;SDS011;11114;50.658;12.704;2023-06-14T04:15:08;12.25;;;11.35;;
21899;SDS011;11114;50.658;12.704;2023-06-14T04:18:09;12.65;;;11.43;;
21899;SDS011;11114;50.658;12.704;2023-06-14T04:20:56;11.95;;;11.05;;
21899;SDS011;11114;50.658;12.704;2023-06-14T04:23:42;11.80;;;10.77;;
21899;SDS011;11114;50.658;12.704;2023-06-14T04:26:33;12.10;;;11.20;;
21899;SDS011;11114;50.658;12.704;2023-06-14T04:29:20;12.32;;;11.30;;
21899;SDS011;11114;50.658;12.704;2023-06-14T04:32:14;11.43;;;10.60;;
21899;SDS011;11114;50.658;12.704;2023-06-14T04:35:01;12.27;;;11.38;;
21899;SDS011;11114;50.658;12.704;2023-06-14T04:37:51;12.27;;;11.27;;
21899;SDS011;11114;50.658;12.704;2023-06-14T04:40:40;11.55;;;10.55;;
21899;SDS011;11114;50.658;12.704;2023-06-14T04:43:32;13.20;;;11.80;;
21899;SDS011;11114;50.658;12.704;2023-06-14T04:46:25;12.43;;;11.50;;
21899;SDS011;11114;50.658;12.704;2023-06-14T04:49:14;12.10;;;11.10;;
21899;SDS011;11114;50.658;12.704;2023-06-14T04:52:01;12.65;;;11.57;;
21899;SDS011;11114;50.658;12.704;2023-06-14T04:54:54;11.85;;;10.75;;
21899;SDS011;11114;50.658;12.704;2023-06-14T04:57:42;12.38;;;11.38;;
21899;SDS011;11114;50.658;12.704;2023-06-14T05:00:29;12.57;;;11.57;;
21899;SDS011;11114;50.658;12.704;2023-06-14T05:03:16;12.38;;;11.40;;
21899;SDS011;11114;50.658;12.704;2023-06-14T05:06:05;12.77;;;11.75;;
21899;SDS011;11114;50.658;12.704;2023-06-14T05:08:52;12.80;;;11.80;;
21899;SDS011;11114;50.658;12.704;2023-06-14T05:11:38;12.23;;;11.25;;
21899;SDS011;11114;50.658;12.704;2023-06-14T05:14:25;11.68;;;10.77;;
21899;SDS011;11114;50.658;12.704;2023-06-14T05:17:11;13.45;;;12.32;;
21899;SDS011;11114;50.658;12.704;2023-06-14T05:19:58;13.07;;;11.98;;
21899;SDS011;11114;50.658;12.704;2023-06-14T05:22:44;13.35;;;12.35;;
21899;SDS011;11114;50.658;12.704;2023-06-14T05:25:31;11.95;;;10.95;;
21899;SDS011;11114;50.658;12.704;2023-06-14T05:28:18;13.50;;;12.30;;
21899;SDS011;11114;50.658;12.704;2023-06-14T05:31:05;13.77;;;12.57;;
21899;SDS011;11114;50.658;12.704;2023-06-14T05:33:51;12.57;;;11.68;;
21899;SDS011;11114;50.658;12.704;2023-06-14T05:36:38;12.98;;;11.98;;
21899;SDS011;11114;50.658;12.704;2023-06-14T05:39:25;11.85;;;10.98;;
21899;SDS011;11114;50.658;12.704;2023-06-14T05:42:11;12.75;;;11.75;;
21899;SDS011;11114;50.658;12.704;2023-06-14T05:44:57;12.30;;;11.38;;
21899;SDS011;11114;50.658;12.704;2023-06-14T05:47:44;15.85;;;14.25;;
21899;SDS011;11114;50.658;12.704;2023-06-14T05:50:31;14.25;;;12.45;;
21899;SDS011;11114;50.658;12.704;2023-06-14T05:53:17;13.48;;;12.00;;
21899;SDS011;11114;50.658;12.704;2023-06-14T05:56:03;13.30;;;12.10;;
21899;SDS011;11114;50.658;12.704;2023-06-14T05:58:49;13.70;;;12.60;;
21899;SDS011;11114;50.658;12.704;2023-06-14T06:01:37;14.18;;;12.75;;
21899;SDS011;11114;50.658;12.704;2023-06-14T06:04:24;13.38;;;12.18;;
21899;SDS011;11114;50.658;12.704;2023-06-14T06:07:12;13.60;;;12.60;;
21899;SDS011;11114;50.658;12.704;2023-06-14T06:09:58;13.50;;;12.50;;
21899;SDS011;11114;50.658;12.704;2023-06-14T06:12:45;13.50;;;12.40;;
21899;SDS011;11114;50.658;12.704;2023-06-14T06:15:33;14.57;;;13.07;;
21899;SDS011;11114;50.658;12.704;2023-06-14T06:18:19;14.23;;;12.93;;
21899;SDS011;11114;50.658;12.704;2023-06-14T06:21:05;13.35;;;12.15;;
21899;SDS011;11114;50.658;12.704;2023-06-14T06:23:52;12.85;;;11.85;;
21899;SDS011;11114;50.658;12.704;2023-06-14T06:26:38;13.80;;;12.75;;
21899;SDS011;11114;50.658;12.704;2023-06-14T06:29:26;12.10;;;11.00;;
21899;SDS011;11114;50.658;12.704;2023-06-14T06:32:12;13.00;;;12.10;;
21899;SDS011;11114;50.658;12.704;2023-06-14T06:35:01;13.02;;;11.93;;
21899;SDS011;11114;50.658;12.704;2023-06-14T06:37:48;13.07;;;11.82;;
21899;SDS011;11114;50.658;12.704;2023-06-14T06:40:34;12.40;;;11.20;;
21899;SDS011;11114;50.658;12.704;2023-06-14T06:43:21;11.80;;;10.90;;
21899;SDS011;11114;50.658;12.704;2023-06-14T06:46:08;10.77;;;9.73;;
21899;SDS011;11114;50.658;12.704;2023-06-14T06:48:55;11.85;;;10.75;;
21899;SDS011;11114;50.658;12.704;2023-06-14T06:51:42;12.70;;;11.68;;
21899;SDS011;11114;50.658;12.704;2023-06-14T06:54:31;10.50;;;9.70;;
21899;SDS011;11114;50.658;12.704;2023-06-14T06:57:17;10.40;;;9.65;;
21899;SDS011;11114;50.658;12.704;2023-06-14T07:00:04;10.02;;;9.30;;
21899;SDS011;11114;50.658;12.704;2023-06-14T07:02:55;9.95;;;9.25;;
21899;SDS011;11114;50.658;12.704;2023-06-14T07:05:41;10.18;;;9.48;;
21899;SDS011;11114;50.658;12.704;2023-06-14T07:08:28;11.25;;;10.43;;
21899;SDS011;11114;50.658;12.704;2023-06-14T07:11:15;12.75;;;11.85;;
21899;SDS011;11114;50.658;12.704;2023-06-14T07:14:01;13.75;;;12.75;;
21899;SDS011;11114;50.658;12.704;2023-06-14T07:16:47;12.73;;;11.77;;
21899;SDS011;11114;50.658;12.704;2023-06-14T07:19:33;14.02;;;12.63;;
21899;SDS011;11114;50.658;12.704;2023-06-14T07:22:20;13.15;;;12.25;;
21899;SDS011;11114;50.658;12.704;2023-06-14T07:25:07;13.70;;;12.52;;
21899;SDS011;11114;50.658;12.704;2023-06-14T07:28:02;11.73;;;10.93;;
21899;SDS011;11114;50.658;12.704;2023-06-14T07:30:49;12.27;;;11.40;;
21899;SDS011;11114;50.658;12.704;2023-06-14T07:33:36;13.00;;;12.02;;
21899;SDS011;11114;50.658;12.704;2023-06-14T07:36:22;13.38;;;12.38;;
21899;SDS011;11114;50.658;12.704;2023-06-14T07:39:09;13.98;;;12.82;;
21899;SDS011;11114;50.658;12.704;2023-06-14T07:41:56;13.35;;;12.25;;
21899;SDS011;11114;50.658;12.704;2023-06-14T07:44:43;13.93;;;12.82;;
21899;SDS011;11114;50.658;12.704;2023-06-14T07:47:29;13.73;;;12.73;;
21899;SDS011;11114;50.658;12.704;2023-06-14T07:50:17;12.77;;;11.88;;
21899;SDS011;11114;50.658;12.704;2023-06-14T07:53:02;14.45;;;13.23;;
21899;SDS011;11114;50.658;12.704;2023-06-14T07:55:48;14.27;;;13.07;;
21899;SDS011;11114;50.658;12.704;2023-06-14T07:58:39;14.65;;;13.48;;
21899;SDS011;11114;50.658;12.704;2023-06-14T08:01:25;14.60;;;13.60;;
21899;SDS011;11114;50.658;12.704;2023-06-14T08:04:11;15.35;;;14.13;;
21899;SDS011;11114;50.658;12.704;2023-06-14T08:06:58;14.63;;;13.30;;
21899;SDS011;11114;50.658;12.704;2023-06-14T08:09:49;13.32;;;12.27;;
21899;SDS011;11114;50.658;12.704;2023-06-14T08:12:36;13.93;;;12.93;;
21899;SDS011;11114;50.658;12.704;2023-06-14T08:15:23;13.25;;;12.32;;
21899;SDS011;11114;50.658;12.704;2023-06-14T08:18:09;14.88;;;13.75;;
21899;SDS011;11114;50.658;12.704;2023-06-14T08:20:56;15.25;;;14.05;;
21899;SDS011;11114;50.658;12.704;2023-06-14T08:23:44;14.50;;;13.50;;
21899;SDS011;11114;50.658;12.704;2023-06-14T08:26:30;14.85;;;13.60;;
21899;SDS011;11114;50.658;12.704;2023-06-14T08:29:17;14.20;;;13.10;;
21899;SDS011;11114;50.658;12.704;2023-06-14T08:32:05;13.80;;;12.80;;
21899;SDS011;11114;50.658;12.704;2023-06-14T08:34:52;14.43;;;13.32;;
21899;SDS011;11114;50.658;12.704;2023-06-14T08:37:50;14.48;;;13.38;;
21899;SDS011;11114;50.658;12.704;2023-06-14T08:40:37;14.27;;;12.93;;
21899;SDS011;11114;50.658;12.704;2023-06-14T08:43:24;14.98;;;13.75;;
21899;SDS011;11114;50.658;12.704;2023-06-14T08:46:11;14.82;;;13.48;;
21899;SDS011;11114;50.658;12.704;2023-06-14T08:49:02;14.00;;;13.00;;
21899;SDS011;11114;50.658;12.704;2023-06-14T08:51:58;13.77;;;12.57;;
21899;SDS011;11114;50.658;12.704;2023-06-14T08:54:45;14.40;;;13.40;;
21899;SDS011;11114;50.658;12.704;2023-06-14T08:57:35;14.05;;;12.95;;
21899;SDS011;11114;50.658;12.704;2023-06-14T09:00:24;14.82;;;13.73;;
21899;SDS011;11114;50.658;12.704;2023-06-14T09:03:12;14.25;;;13.18;;
21899;SDS011;11114;50.658;12.704;2023-06-14T09:06:01;13.95;;;12.85;;
21899;SDS011;11114;50.658;12.704;2023-06-14T09:08:49;14.60;;;13.57;;
21899;SDS011;11114;50.658;12.704;2023-06-14T09:11:36;13.98;;;12.98;;
21899;SDS011;11114;50.658;12.704;2023-06-14T09:14:23;13.30;;;12.30;;
21899;SDS011;11114;50.658;12.704;2023-06-14T09:17:13;14.13;;;13.02;;
21899;SDS011;11114;50.658;12.704;2023-06-14T09:20:00;13.85;;;12.75;;
21899;SDS011;11114;50.658;12.704;2023-06-14T09:22:46;13.90;;;12.90;;
21899;SDS011;11114;50.658;12.704;2023-06-14T09:25:43;14.30;;;13.20;;
21899;SDS011;11114;50.658;12.704;2023-06-14T09:28:31;12.50;;;11.60;;
21899;SDS011;11114;50.658;12.704;2023-06-14T09:31:18;13.60;;;12.60;;
21899;SDS011;11114;50.658;12.704;2023-06-14T09:34:06;13.35;;;12.30;;
21899;SDS011;11114;50.658;12.704;2023-06-14T09:36:53;11.07;;;10.07;;
21899;SDS011;11114;50.658;12.704;2023-06-14T09:39:52;10.57;;;9.65;;
21899;SDS011;11114;50.658;12.704;2023-06-14T09:42:38;10.88;;;9.98;;
21899;SDS011;11114;50.658;12.704;2023-06-14T09:45:26;11.00;;;10.20;;
21899;SDS011;11114;50.658;12.704;2023-06-14T09:48:15;11.32;;;10.30;;
21899;SDS011;11114;50.658;12.704;2023-06-14T09:51:03;10.48;;;9.68;;
21899;SDS011;11114;50.658;12.704;2023-06-14T09:53:51;10.52;;;9.82;;
21899;SDS011;11114;50.658;12.704;2023-06-14T09:56:41;11.60;;;10.50;;
21899;SDS011;11114;50.658;12.704;2023-06-14T09:59:30;11.70;;;10.63;;
21899;SDS011;11114;50.658;12.704;2023-06-14T10:02:24;11.07;;;10.27;;
21899;SDS011;11114;50.658;12.704;2023-06-14T10:05:11;10.63;;;9.85;;
21899;SDS011;11114;50.658;12.704;2023-06-14T10:08:05;11.00;;;9.97;;
21899;SDS011;11114;50.658;12.704;2023-06-14T10:10:55;11.48;;;10.65;;
21899;SDS011;11114;50.658;12.704;2023-06-14T10:13:42;11.80;;;10.90;;
21899;SDS011;11114;50.658;12.704;2023-06-14T10:16:33;10.80;;;10.00;;
21899;SDS011;11114;50.658;12.704;2023-06-14T10:19:32;10.93;;;10.15;;
21899;SDS011;11114;50.658;12.704;2023-06-14T10:22:29;10.75;;;9.95;;
21899;SDS011;11114;50.658;12.704;2023-06-14T10:25:27;11.52;;;10.52;;
21899;SDS011;11114;50.658;12.704;2023-06-14T10:28:19;10.80;;;9.90;;
21899;SDS011;11114;50.658;12.704;2023-06-14T10:31:09;10.63;;;9.82;;
21899;SDS011;11114;50.658;12.704;2023-06-14T10:33:56;10.15;;;9.43;;
21899;SDS011;11114;50.658;12.704;2023-06-14T10:36:43;10.30;;;9.52;;
21899;SDS011;11114;50.658;12.704;2023-06-14T10:39:29;11.85;;;8.85;;
21899;SDS011;11114;50.658;12.704;2023-06-14T10:42:36;9.68;;;9.07;;
21899;SDS011;11114;50.658;12.704;2023-06-14T10:45:23;9.90;;;9.10;;
21899;SDS011;11114;50.658;12.704;2023-06-14T10:48:17;9.45;;;8.68;;
21899;SDS011;11114;50.658;12.704;2023-06-14T10:51:17;9.10;;;8.50;;
21899;SDS011;11114;50.658;12.704;2023-06-14T10:54:07;9.32;;;8.63;;
21899;SDS011;11114;50.658;12.704;2023-06-14T10:56:58;10.32;;;9.20;;
21899;SDS011;11114;50.658;12.704;2023-06-14T10:59:45;10.07;;;9.10;;
21899;SDS011;11114;50.658;12.704;2023-06-14T11:11:32;8.88;;;8.02;;
21899;SDS011;11114;50.658;12.704;2023-06-14T11:14:22;8.45;;;7.72;;
21899;SDS011;11114;50.658;12.704;2023-06-14T11:17:08;10.00;;;9.10;;
21899;SDS011;11114;50.658;12.704;2023-06-14T11:20:11;9.07;;;8.27;;
21899;SDS011;11114;50.658;12.704;2023-06-14T11:23:08;9.45;;;8.65;;
21899;SDS011;11114;50.658;12.704;2023-06-14T11:25:55;11.05;;;10.05;;
21899;SDS011;11114;50.658;12.704;2023-06-14T11:28:45;10.80;;;10.00;;
21899;SDS011;11114;50.658;12.704;2023-06-14T11:31:32;10.20;;;9.40;;
21899;SDS011;11114;50.658;12.704;2023-06-14T11:34:19;9.52;;;8.82;;
21899;SDS011;11114;50.658;12.704;2023-06-14T11:37:06;9.30;;;8.60;;
21899;SDS011;11114;50.658;12.704;2023-06-14T11:39:52;9.32;;;8.63;;
21899;SDS011;11114;50.658;12.704;2023-06-14T11:42:42;9.80;;;8.80;;
21899;SDS011;11114;50.658;12.704;2023-06-14T11:45:30;11.07;;;9.00;;
21899;SDS011;11114;50.658;12.704;2023-06-14T11:48:17;9.80;;;8.80;;
21899;SDS011;11114;50.658;12.704;2023-06-14T11:51:09;9.95;;;9.07;;
21899;SDS011;11114;50.658;12.704;2023-06-14T11:53:55;12.50;;;9.48;;
21899;SDS011;11114;50.658;12.704;2023-06-14T11:56:44;9.98;;;9.00;;
21899;SDS011;11114;50.658;12.704;2023-06-14T11:59:31;10.23;;;9.52;;
21899;SDS011;11114;50.658;12.704;2023-06-14T12:02:18;11.80;;;9.13;;
21899;SDS011;11114;50.658;12.704;2023-06-14T12:05:09;10.70;;;9.70;;
21899;SDS011;11114;50.658;12.704;2023-06-14T12:07:59;10.07;;;9.23;;
21899;SDS011;11114;50.658;12.704;2023-06-14T12:10:46;11.23;;;9.18;;
21899;SDS011;11114;50.658;12.704;2023-06-14T12:13:33;10.30;;;9.60;;
21899;SDS011;11114;50.658;12.704;2023-06-14T12:16:20;9.20;;;8.60;;
21899;SDS011;11114;50.658;12.704;2023-06-14T12:19:16;9.70;;;9.00;;
21899;SDS011;11114;50.658;12.704;2023-06-14T12:22:03;9.60;;;8.85;;
21899;SDS011;11114;50.658;12.704;2023-06-14T12:24:50;9.10;;;8.43;;
21899;SDS011;11114;50.658;12.704;2023-06-14T12:27:39;9.68;;;8.63;;
21899;SDS011;11114;50.658;12.704;2023-06-14T12:30:27;9.60;;;8.70;;
21899;SDS011;11114;50.658;12.704;2023-06-14T12:33:17;8.60;;;7.85;;
21899;SDS011;11114;50.658;12.704;2023-06-14T12:36:04;9.27;;;8.57;;
21899;SDS011;11114;50.658;12.704;2023-06-14T12:38:52;8.85;;;8.25;;
21899;SDS011;11114;50.658;12.704;2023-06-14T12:41:41;9.13;;;8.43;;
21899;SDS011;11114;50.658;12.704;2023-06-14T12:44:28;9.30;;;8.60;;
21899;SDS011;11114;50.658;12.704;2023-06-14T12:47:14;8.07;;;7.45;;
21899;SDS011;11114;50.658;12.704;2023-06-14T12:50:00;9.15;;;8.35;;
21899;SDS011;11114;50.658;12.704;2023-06-14T12:52:46;8.55;;;7.90;;
21899;SDS011;11114;50.658;12.704;2023-06-14T12:55:32;8.90;;;8.20;;
21899;SDS011;11114;50.658;12.704;2023-06-14T12:58:22;8.75;;;8.15;;
21899;SDS011;11114;50.658;12.704;2023-06-14T13:01:10;8.45;;;7.85;;
21899;SDS011;11114;50.658;12.704;2023-06-14T13:03:56;8.65;;;8.00;;
21899;SDS011;11114;50.658;12.704;2023-06-14T13:06:42;9.30;;;8.50;;
21899;SDS011;11114;50.658;12.704;2023-06-14T13:09:28;9.80;;;9.00;;
21899;SDS011;11114;50.658;12.704;2023-06-14T13:12:15;10.57;;;9.50;;
21899;SDS011;11114;50.658;12.704;2023-06-14T13:15:02;8.85;;;8.20;;
21899;SDS011;11114;50.658;12.704;2023-06-14T13:17:48;9.48;;;8.57;;
21899;SDS011;11114;50.658;12.704;2023-06-14T13:20:35;9.45;;;8.63;;
21899;SDS011;11114;50.658;12.704;2023-06-14T13:23:21;9.50;;;8.80;;
21899;SDS011;11114;50.658;12.704;2023-06-14T13:26:10;9.50;;;8.60;;
21899;SDS011;11114;50.658;12.704;2023-06-14T13:28:58;9.50;;;8.70;;
21899;SDS011;11114;50.658;12.704;2023-06-14T13:31:46;9.80;;;9.10;;
21899;SDS011;11114;50.658;12.704;2023-06-14T13:34:33;9.90;;;9.10;;
21899;SDS011;11114;50.658;12.704;2023-06-14T13:37:20;10.18;;;9.23;;
21899;SDS011;11114;50.658;12.704;2023-06-14T13:40:06;9.65;;;8.90;;
21899;SDS011;11114;50.658;12.704;2023-06-14T13:42:55;10.25;;;9.40;;
21899;SDS011;11114;50.658;12.704;2023-06-14T13:45:41;10.07;;;9.27;;
21899;SDS011;11114;50.658;12.704;2023-06-14T13:48:28;10.13;;;9.40;;
21899;SDS011;11114;50.658;12.704;2023-06-14T13:51:14;9.35;;;8.60;;
21899;SDS011;11114;50.658;12.704;2023-06-14T13:54:01;9.48;;;8.77;;
21899;SDS011;11114;50.658;12.704;2023-06-14T13:56:48;9.95;;;9.15;;
21899;SDS011;11114;50.658;12.704;2023-06-14T13:59:39;9.38;;;8.68;;
21899;SDS011;11114;50.658;12.704;2023-06-14T14:02:25;10.35;;;9.35;;
21899;SDS011;11114;50.658;12.704;2023-06-14T14:05:11;9.93;;;9.20;;
21899;SDS011;11114;50.658;12.704;2023-06-14T14:07:58;9.88;;;9.07;;
21899;SDS011;11114;50.658;12.704;2023-06-14T14:10:44;10.55;;;9.75;;
21899;SDS011;11114;50.658;12.704;2023-06-14T14:13:31;11.00;;;10.10;;
21899;SDS011;11114;50.658;12.704;2023-06-14T14:16:20;10.30;;;9.50;;
21899;SDS011;11114;50.658;12.704;2023-06-14T14:19:06;10.43;;;9.73;;
21899;SDS011;11114;50.658;12.704;2023-06-14T14:21:53;11.07;;;10.27;;
21899;SDS011;11114;50.658;12.704;2023-06-14T14:24:39;9.60;;;8.80;;
21899;SDS011;11114;50.658;12.704;2023-06-14T14:27:25;9.98;;;9.27;;
21899;SDS011;11114;50.658;12.704;2023-06-14T14:30:12;9.40;;;8.70;;
21899;SDS011;11114;50.658;12.704;2023-06-14T14:33:02;9.20;;;8.50;;
21899;SDS011;11114;50.658;12.704;2023-06-14T14:35:49;8.40;;;7.80;;
21899;SDS011;11114;50.658;12.704;2023-06-14T14:38:35;8.95;;;8.25;;
21899;SDS011;11114;50.658;12.704;2023-06-14T14:41:22;9.13;;;8.43;;
21899;SDS011;11114;50.658;12.704;2023-06-14T14:44:08;8.88;;;8.18;;
21899;SDS011;11114;50.658;12.704;2023-06-14T14:46:55;8.13;;;7.53;;
21899;SDS011;11114;50.658;12.704;2023-06-14T14:49:42;8.45;;;7.85;;
21899;SDS011;11114;50.658;12.704;2023-06-14T14:52:29;9.80;;;9.02;;
21899;SDS011;11114;50.658;12.704;2023-06-14T14:55:16;9.73;;;8.63;;
21899;SDS011;11114;50.658;12.704;2023-06-14T14:58:03;9.48;;;8.57;;
21899;SDS011;11114;50.658;12.704;2023-06-14T15:00:50;10.00;;;9.02;;
21899;SDS011;11114;50.658;12.704;2023-06-14T15:03:37;9.30;;;8.60;;
21899;SDS011;11114;50.658;12.704;2023-06-14T15:06:43;9.38;;;8.57;;
21899;SDS011;11114;50.658;12.704;2023-06-14T15:09:30;10.98;;;8.13;;
21899;SDS011;11114;50.658;12.704;2023-06-14T15:12:16;9.07;;;8.27;;
21899;SDS011;11114;50.658;12.704;2023-06-14T15:15:03;8.75;;;8.05;;
21899;SDS011;11114;50.658;12.704;2023-06-14T15:17:49;9.18;;;8.30;;
21899;SDS011;11114;50.658;12.704;2023-06-14T15:20:36;9.45;;;8.68;;
21899;SDS011;11114;50.658;12.704;2023-06-14T15:23:22;8.95;;;8.25;;
21899;SDS011;11114;50.658;12.704;2023-06-14T15:26:09;9.05;;;8.15;;
21899;SDS011;11114;50.658;12.704;2023-06-14T15:28:55;8.05;;;7.40;;
21899;SDS011;11114;50.658;12.704;2023-06-14T15:31:42;9.82;;;9.00;;
21899;SDS011;11114;50.658;12.704;2023-06-14T15:34:31;9.82;;;8.55;;
21899;SDS011;11114;50.658;12.704;2023-06-14T15:37:17;9.60;;;8.80;;
21899;SDS011;11114;50.658;12.704;2023-06-14T15:40:04;9.38;;;8.57;;
21899;SDS011;11114;50.658;12.704;2023-06-14T15:42:52;9.30;;;8.60;;
21899;SDS011;11114;50.658;12.704;2023-06-14T15:45:37;9.32;;;8.70;;
21899;SDS011;11114;50.658;12.704;2023-06-14T15:48:25;10.02;;;9.00;;
21899;SDS011;11114;50.658;12.704;2023-06-14T15:51:11;9.57;;;8.90;;
21899;SDS011;11114;50.658;12.704;2023-06-14T15:53:59;10.07;;;9.32;;
21899;SDS011;11114;50.658;12.704;2023-06-14T15:56:45;9.73;;;8.90;;
21899;SDS011;11114;50.658;12.704;2023-06-14T15:59:32;9.10;;;8.25;;
21899;SDS011;11114;50.658;12.704;2023-06-14T16:02:19;9.30;;;8.60;;
21899;SDS011;11114;50.658;12.704;2023-06-14T16:05:06;9.57;;;8.77;;
21899;SDS011;11114;50.658;12.704;2023-06-14T16:07:53;9.68;;;8.98;;
21899;SDS011;11114;50.658;12.704;2023-06-14T16:10:40;9.07;;;8.48;;
21899;SDS011;11114;50.658;12.704;2023-06-14T16:13:27;10.02;;;9.02;;
21899;SDS011;11114;50.658;12.704;2023-06-14T16:16:14;11.55;;;10.07;;
21899;SDS011;11114;50.658;12.704;2023-06-14T16:19:00;9.43;;;8.82;;
21899;SDS011;11114;50.658;12.704;2023-06-14T16:21:46;9.30;;;8.60;;
21899;SDS011;11114;50.658;12.704;2023-06-14T16:24:32;9.25;;;8.55;;
21899;SDS011;11114;50.658;12.704;2023-06-14T16:27:18;8.82;;;8.02;;
21899;SDS011;11114;50.658;12.704;2023-06-14T16:30:05;8.85;;;8.18;;
21899;SDS011;11114;50.658;12.704;2023-06-14T16:32:52;8.68;;;7.90;;